Time;durP1;ratioP1;P1;durP2;ratioP2;P2;SDS_P1;SDS_P2;PMS_P1;PMS_P2;Temp;Humidity;BMP_temperature;BMP_pressure;BME280_temperature;BME280_humidity;BME280_pressure;Samples;Min_cycle;Max_cycle;Signal;HPM_P1;HPM_P2
2022/01/13 00:01:24;;;;;;;169.07;28.13;;;5.20;99.90;;;;;;4861404;29;20491;-89
2022/01/13 00:03:50;;;;;;;161.40;24.45;;;5.30;99.90;;;;;;4863235;29;20398;-89
2022/01/13 00:06:16;;;;;;;169.63;23.95;;;5.30;99.90;;;;;;4878098;29;20041;-89
2022/01/13 00:08:41;;;;;;;146.23;24.02;;;5.30;99.90;;;;;;4861437;29;20540;-89
2022/01/13 00:11:07;;;;;;;169.02;24.33;;;5.40;99.90;;;;;;4853923;29;20524;-90
2022/01/13 00:13:46;;;;;;;179.23;23.90;;;5.30;99.90;;;;;;4857571;29;20127;-89
2022/01/13 00:16:25;;;;;;;136.52;21.77;;;5.40;99.90;;;;;;4861707;29;20085;-90
2022/01/13 00:19:04;;;;;;;143.20;22.38;;;5.40;99.90;;;;;;4860071;29;20076;-89
2022/01/13 00:21:55;;;;;;;126.85;21.50;;;5.30;99.90;;;;;;4860689;29;20056;-89
2022/01/13 00:24:18;;;;;;;113.10;21.00;;;5.40;99.90;;;;;;4877205;29;20131;-89
2022/01/13 00:26:46;;;;;;;142.23;23.95;;;5.30;99.90;;;;;;4858385;29;20144;-89
2022/01/13 00:29:11;;;;;;;138.88;20.75;;;5.30;99.90;;;;;;4860791;29;20482;-89
2022/01/13 00:31:40;;;;;;;111.47;22.45;;;5.40;99.90;;;;;;4853095;29;20052;-89
2022/01/13 00:34:07;;;;;;;145.95;21.40;;;5.30;99.90;;;;;;4844228;29;20053;-91
2022/01/13 00:36:35;;;;;;;117.80;21.60;;;5.40;99.90;;;;;;4857382;29;20067;-89
2022/01/13 00:39:02;;;;;;;125.65;22.42;;;5.40;99.90;;;;;;4864768;29;20087;-88
2022/01/13 00:41:29;;;;;;;133.85;22.45;;;5.40;99.90;;;;;;4856054;29;20490;-90
2022/01/13 00:43:56;;;;;;;106.30;21.83;;;5.40;99.90;;;;;;4849644;29;20052;-89
2022/01/13 00:46:25;;;;;;;132.50;24.15;;;5.40;99.90;;;;;;4856270;29;20044;-89
2022/01/13 00:48:53;;;;;;;112.40;22.73;;;5.30;99.90;;;;;;4861925;29;20139;-90
2022/01/13 00:51:21;;;;;;;117.93;22.50;;;5.40;99.90;;;;;;4862086;29;20497;-89
2022/01/13 00:53:47;;;;;;;105.40;19.65;;;5.30;99.90;;;;;;4854504;29;20045;-89
2022/01/13 00:56:13;;;;;;;120.50;22.65;;;5.30;99.90;;;;;;4856010;29;20082;-89
2022/01/13 00:58:38;;;;;;;110.97;21.65;;;5.40;99.90;;;;;;4856937;29;20052;-89
2022/01/13 01:01:06;;;;;;;132.98;21.42;;;5.40;99.90;;;;;;4859314;29;20133;-87
2022/01/13 01:03:33;;;;;;;100.88;22.38;;;5.40;99.90;;;;;;4861803;29;20135;-89
2022/01/13 01:06:01;;;;;;;121.80;24.13;;;5.40;99.90;;;;;;4881202;29;20045;-89
2022/01/13 01:08:27;;;;;;;123.72;23.48;;;5.40;99.90;;;;;;4876811;29;20055;-89
2022/01/13 01:10:54;;;;;;;121.10;24.15;;;5.30;99.90;;;;;;4858064;29;20053;-90
2022/01/13 01:13:25;;;;;;;93.50;24.50;;;5.40;99.90;;;;;;4852283;29;20049;-89
2022/01/13 01:15:54;;;;;;;138.25;24.60;;;5.30;99.90;;;;;;4861639;29;20044;-89
2022/01/13 01:21:31;;;;;;;98.32;23.23;;;5.30;99.90;;;;;;4872574;29;20053;-89
2022/01/13 01:26:48;;;;;;;131.50;22.87;;;5.20;99.90;;;;;;4868239;29;20530;-89
2022/01/13 01:29:24;;;;;;;137.02;24.30;;;5.30;99.90;;;;;;4860547;29;20795;-90
2022/01/13 01:31:53;;;;;;;109.35;24.90;;;5.40;99.90;;;;;;4862295;29;20091;-89
2022/01/13 01:34:41;;;;;;;136.00;24.17;;;5.30;99.90;;;;;;4861131;29;20036;-89
2022/01/13 01:37:18;;;;;;;133.82;24.45;;;5.40;99.90;;;;;;4865660;29;20071;-89
2022/01/13 01:39:46;;;;;;;117.25;25.58;;;5.30;99.90;;;;;;4858806;29;20140;-89
2022/01/13 01:42:12;;;;;;;106.93;23.65;;;5.30;99.90;;;;;;4852407;29;20092;-90
2022/01/13 01:44:42;;;;;;;126.63;24.08;;;5.30;99.90;;;;;;4849404;29;20052;-90
2022/01/13 01:47:13;;;;;;;116.82;24.00;;;5.30;99.90;;;;;;4857469;29;20048;-89
2022/01/13 01:49:45;;;;;;;89.13;21.92;;;5.30;99.90;;;;;;4873883;29;20055;-89
2022/01/13 01:52:12;;;;;;;95.65;22.58;;;5.30;99.90;;;;;;4862925;29;20045;-89
2022/01/13 01:54:38;;;;;;;114.78;24.83;;;5.40;99.90;;;;;;4860869;29;20048;-89
2022/01/13 01:57:05;;;;;;;119.18;23.10;;;5.40;99.90;;;;;;4860930;29;20048;-89
2022/01/13 01:59:33;;;;;;;126.80;24.40;;;5.40;99.90;;;;;;4860416;29;20045;-89
2022/01/13 02:01:59;;;;;;;104.50;21.10;;;5.40;99.90;;;;;;4861312;29;20040;-89
2022/01/13 02:04:27;;;;;;;126.15;22.85;;;5.30;99.90;;;;;;4864981;29;20043;-89
2022/01/13 02:06:55;;;;;;;117.25;22.08;;;5.40;99.90;;;;;;4864472;29;20056;-89
2022/01/13 02:09:22;;;;;;;107.05;20.80;;;5.30;99.90;;;;;;4862938;29;20041;-89
2022/01/13 02:11:54;;;;;;;105.50;20.73;;;5.30;99.90;;;;;;4859498;29;20131;-89
2022/01/13 02:17:07;;;;;;;88.60;18.35;;;5.30;99.90;;;;;;4892830;29;20147;-89
2022/01/13 02:19:35;;;;;;;84.25;20.27;;;5.40;99.90;;;;;;4861655;29;20097;-88
2022/01/13 02:22:02;;;;;;;100.00;19.45;;;5.30;99.90;;;;;;4869258;29;20045;-90
2022/01/13 02:24:28;;;;;;;89.05;20.20;;;5.30;99.90;;;;;;4891969;29;20055;-89
2022/01/13 02:26:54;;;;;;;76.60;19.25;;;5.30;99.90;;;;;;4874783;29;20135;-89
2022/01/13 02:29:20;;;;;;;83.00;21.58;;;5.40;99.90;;;;;;4861306;29;20131;-89
2022/01/13 02:31:45;;;;;;;82.32;20.45;;;5.30;99.90;;;;;;4860757;29;20497;-89
2022/01/13 02:34:11;;;;;;;72.88;19.23;;;5.40;99.90;;;;;;4873030;29;20052;-89
2022/01/13 02:36:38;;;;;;;87.78;20.98;;;5.40;99.90;;;;;;4863087;29;20135;-89
2022/01/13 02:39:04;;;;;;;88.18;19.95;;;5.30;99.90;;;;;;4872545;29;20040;-89
2022/01/13 02:41:30;;;;;;;77.50;18.73;;;5.30;99.90;;;;;;4856265;29;20040;-89
2022/01/13 02:43:58;;;;;;;74.85;17.90;;;5.40;99.90;;;;;;4863079;29;20051;-89
2022/01/13 02:46:43;;;;;;;77.93;19.23;;;5.40;99.90;;;;;;4863290;29;20036;-90
2022/01/13 02:49:14;;;;;;;83.10;20.20;;;5.40;99.90;;;;;;4874260;29;20042;-89
2022/01/13 02:51:41;;;;;;;72.65;19.73;;;5.30;99.90;;;;;;4891324;29;20049;-89
2022/01/13 02:54:08;;;;;;;62.92;18.10;;;5.20;99.90;;;;;;4875285;29;20037;-89
2022/01/13 02:56:34;;;;;;;84.97;18.23;;;5.20;99.90;;;;;;4876721;29;20878;-89
2022/01/13 02:59:00;;;;;;;63.97;18.08;;;5.30;99.90;;;;;;4859382;29;20037;-89
2022/01/13 03:01:26;;;;;;;99.15;18.65;;;5.30;99.90;;;;;;4859915;29;20134;-90
2022/01/13 03:03:51;;;;;;;83.93;17.65;;;5.40;99.90;;;;;;4862966;29;20045;-89
2022/01/13 03:06:22;;;;;;;85.57;17.63;;;5.30;99.90;;;;;;4863048;29;20104;-90
2022/01/13 03:08:51;;;;;;;86.47;19.08;;;5.30;99.90;;;;;;4855555;29;20419;-89
2022/01/13 03:11:17;;;;;;;68.78;17.40;;;5.30;99.90;;;;;;4857710;29;20033;-89
2022/01/13 03:13:43;;;;;;;69.13;18.20;;;5.20;99.90;;;;;;4860360;29;20045;-89
2022/01/13 03:16:13;;;;;;;115.35;18.50;;;5.30;99.90;;;;;;4863867;29;20039;-89
2022/01/13 03:18:39;;;;;;;94.93;19.55;;;5.30;99.90;;;;;;4863802;29;20045;-90
2022/01/13 03:21:06;;;;;;;85.65;18.30;;;5.20;99.90;;;;;;4863334;29;20049;-89
2022/01/13 03:23:34;;;;;;;93.38;19.98;;;5.20;99.90;;;;;;4863363;29;20048;-89
2022/01/13 03:26:00;;;;;;;98.43;21.00;;;5.30;99.90;;;;;;4863304;29;20095;-89
2022/01/13 03:28:30;;;;;;;75.88;18.67;;;5.30;99.90;;;;;;4878168;29;20040;-89
2022/01/13 03:30:57;;;;;;;87.88;20.63;;;5.30;99.90;;;;;;4863415;29;20052;-90
2022/01/13 03:33:23;;;;;;;79.53;20.08;;;5.30;99.90;;;;;;4878475;29;20076;-90
2022/01/13 03:35:49;;;;;;;76.40;19.73;;;5.30;99.90;;;;;;4854892;29;20491;-89
2022/01/13 03:38:14;;;;;;;72.05;19.55;;;5.30;99.90;;;;;;4849413;29;20043;-89
2022/01/13 03:40:40;;;;;;;78.40;20.33;;;5.30;99.90;;;;;;4853825;29;20499;-89
2022/01/13 03:43:06;;;;;;;83.43;19.17;;;5.30;99.90;;;;;;4864067;29;20091;-90
2022/01/13 03:45:32;;;;;;;76.55;18.30;;;5.30;99.90;;;;;;4872855;29;20044;-89
2022/01/13 03:48:02;;;;;;;71.03;18.67;;;5.30;99.90;;;;;;4854627;29;20049;-89
2022/01/13 03:50:28;;;;;;;64.07;17.92;;;5.30;99.90;;;;;;4854144;29;20040;-89
2022/01/13 03:53:01;;;;;;;77.63;18.80;;;5.40;99.90;;;;;;4867486;29;20452;-89
2022/01/13 03:55:36;;;;;;;84.63;18.52;;;5.30;99.90;;;;;;4891843;29;20045;-89
2022/01/13 03:58:39;;;;;;;67.60;17.50;;;5.30;99.90;;;;;;4848360;29;20081;-89
2022/01/13 04:01:23;;;;;;;75.80;18.60;;;5.40;99.90;;;;;;4862284;29;20044;-90
2022/01/13 04:03:48;;;;;;;64.97;18.08;;;5.30;99.90;;;;;;4871510;29;20052;-88
2022/01/13 04:06:14;;;;;;;108.72;19.27;;;5.30;99.90;;;;;;4862330;29;20207;-90
2022/01/13 04:08:40;;;;;;;98.80;19.70;;;5.40;99.90;;;;;;4862830;29;20057;-90
2022/01/13 04:11:06;;;;;;;71.30;17.17;;;5.30;99.90;;;;;;4855793;29;20556;-89
2022/01/13 04:14:27;;;;;;;110.72;19.05;;;5.40;99.90;;;;;;4873195;29;20085;-89
2022/01/13 04:16:22;;;;;;;86.32;18.63;;;5.30;99.90;;;;;;4869279;29;20055;-90
2022/01/13 04:18:49;;;;;;;80.20;18.75;;;5.30;99.90;;;;;;4873077;29;20177;-89
2022/01/13 04:21:17;;;;;;;85.60;19.95;;;5.30;99.90;;;;;;4867256;29;20104;-89
2022/01/13 04:23:43;;;;;;;84.80;18.00;;;5.20;99.90;;;;;;4877986;29;20142;-89
2022/01/13 04:26:09;;;;;;;91.15;19.35;;;5.30;99.90;;;;;;4880211;29;20043;-89
2022/01/13 04:28:36;;;;;;;100.05;19.45;;;5.30;99.90;;;;;;4858304;29;20181;-89
2022/01/13 04:31:03;;;;;;;65.07;18.17;;;5.30;99.90;;;;;;4862036;29;20044;-89
2022/01/13 04:33:29;;;;;;;79.32;18.75;;;5.30;99.90;;;;;;4861667;29;20044;-89
2022/01/13 04:35:55;;;;;;;68.35;17.30;;;5.40;99.90;;;;;;4877501;29;20089;-88
2022/01/13 04:38:21;;;;;;;121.32;21.55;;;5.40;99.90;;;;;;4862301;29;20047;-89
2022/01/13 04:40:54;;;;;;;96.43;19.20;;;5.30;99.90;;;;;;4857875;29;20052;-88
2022/01/13 04:43:19;;;;;;;81.33;17.57;;;5.40;99.90;;;;;;4862739;29;20104;-89
2022/01/13 04:45:45;;;;;;;67.57;18.48;;;5.30;99.90;;;;;;4862308;29;20487;-89
2022/01/13 04:48:11;;;;;;;95.70;19.17;;;5.30;99.90;;;;;;4861450;29;20131;-89
2022/01/13 04:50:36;;;;;;;77.00;19.08;;;5.20;99.90;;;;;;4859081;29;20063;-89
2022/01/13 04:53:02;;;;;;;110.97;20.73;;;5.20;99.90;;;;;;4862225;29;20066;-88
2022/01/13 04:55:31;;;;;;;85.70;19.25;;;5.30;99.90;;;;;;4857915;29;20052;-89
2022/01/13 04:57:59;;;;;;;81.07;18.58;;;5.20;99.90;;;;;;4860521;29;20508;-89
2022/01/13 05:00:26;;;;;;;80.95;20.55;;;5.20;99.90;;;;;;4862212;29;20480;-89
2022/01/13 05:02:52;;;;;;;87.38;20.75;;;5.20;99.90;;;;;;4875752;29;20056;-89
2022/01/13 05:05:17;;;;;;;77.40;19.85;;;5.20;99.90;;;;;;4862210;29;20037;-89
2022/01/13 05:07:43;;;;;;;74.88;20.75;;;5.30;99.90;;;;;;4858320;29;20076;-89
2022/01/13 05:10:09;;;;;;;73.95;19.80;;;5.30;99.90;;;;;;4852153;29;20053;-89
2022/01/13 05:12:42;;;;;;;84.50;19.00;;;5.20;99.90;;;;;;4877190;29;20179;-90
2022/01/13 05:15:15;;;;;;;65.23;18.03;;;5.20;99.90;;;;;;4878173;29;20048;-89
2022/01/13 05:18:03;;;;;;;85.25;21.30;;;5.40;99.90;;;;;;4861309;29;20040;-89
2022/01/13 05:20:39;;;;;;;96.72;20.50;;;5.30;99.90;;;;;;4860551;29;20411;-89
2022/01/13 05:23:06;;;;;;;91.15;21.63;;;5.20;99.90;;;;;;4846414;29;20049;-90
2022/01/13 05:25:31;;;;;;;96.20;20.45;;;5.10;99.90;;;;;;4864740;29;20040;-89
2022/01/13 05:27:57;;;;;;;85.88;20.92;;;5.20;99.90;;;;;;4862047;29;20713;-89
2022/01/13 05:30:23;;;;;;;93.00;20.40;;;5.20;99.90;;;;;;4857008;29;20037;-89
2022/01/13 05:32:49;;;;;;;78.85;19.67;;;5.40;99.90;;;;;;4861610;29;20045;-89
2022/01/13 05:35:17;;;;;;;85.18;20.25;;;5.30;99.90;;;;;;4861584;29;20440;-89
2022/01/13 05:37:45;;;;;;;80.65;20.42;;;5.30;99.90;;;;;;4877978;29;20052;-89
2022/01/13 05:40:13;;;;;;;80.28;20.48;;;5.30;99.90;;;;;;4851565;29;20033;-89
2022/01/13 05:42:40;;;;;;;73.80;17.85;;;5.30;99.90;;;;;;4861214;29;20052;-90
2022/01/13 05:45:14;;;;;;;73.75;19.30;;;5.40;99.90;;;;;;4878138;29;20055;-89
2022/01/13 05:47:40;;;;;;;69.90;17.80;;;5.40;99.90;;;;;;4861755;29;20057;-89
2022/01/13 05:50:07;;;;;;;74.60;17.92;;;5.40;99.90;;;;;;4857322;29;20040;-88
2022/01/13 05:52:33;;;;;;;82.78;20.40;;;5.40;99.90;;;;;;4859332;29;20036;-89
2022/01/13 05:54:58;;;;;;;71.70;18.92;;;5.30;99.90;;;;;;4869944;29;20049;-89
2022/01/13 05:57:24;;;;;;;90.10;20.55;;;5.30;99.90;;;;;;4849014;29;20048;-89
2022/01/13 05:59:49;;;;;;;89.85;19.52;;;5.20;99.90;;;;;;4857689;29;20060;-88
2022/01/13 06:02:15;;;;;;;107.00;21.27;;;5.30;99.90;;;;;;4878952;29;20052;-87
2022/01/13 06:04:40;;;;;;;80.93;19.98;;;5.30;99.90;;;;;;4861202;29;20044;-87
2022/01/13 06:07:06;;;;;;;82.13;20.55;;;5.30;99.90;;;;;;4859903;29;20068;-88
2022/01/13 06:09:31;;;;;;;70.18;19.83;;;5.30;99.90;;;;;;4889615;29;20657;-86
2022/01/13 06:12:01;;;;;;;98.57;24.52;;;5.30;99.90;;;;;;4875416;29;20062;-87
2022/01/13 06:14:27;;;;;;;93.28;22.60;;;5.20;99.90;;;;;;4863020;29;20047;-88
2022/01/13 06:16:52;;;;;;;94.10;21.85;;;5.20;99.90;;;;;;4863949;29;20048;-88
2022/01/13 06:19:18;;;;;;;110.57;21.75;;;5.20;99.90;;;;;;4862118;29;20037;-88
2022/01/13 06:21:44;;;;;;;74.18;19.35;;;5.10;99.90;;;;;;4861349;29;20084;-87
2022/01/13 06:24:10;;;;;;;72.10;20.40;;;5.20;99.90;;;;;;4864555;29;20056;-87
2022/01/13 06:26:35;;;;;;;88.07;18.98;;;5.20;99.90;;;;;;4858242;29;20388;-88
2022/01/13 06:29:01;;;;;;;78.13;18.50;;;5.10;99.90;;;;;;4862205;29;20140;-88
2022/01/13 06:31:27;;;;;;;78.78;19.27;;;5.10;99.90;;;;;;4879194;29;20071;-88
2022/01/13 06:33:52;;;;;;;115.72;19.88;;;5.10;99.90;;;;;;4863929;29;20040;-89
2022/01/13 06:36:18;;;;;;;88.13;17.90;;;5.10;99.90;;;;;;4864617;29;20052;-88
2022/01/13 06:38:48;;;;;;;82.20;18.88;;;5.10;99.90;;;;;;4864407;29;20099;-88
2022/01/13 06:41:14;;;;;;;93.97;20.00;;;5.10;99.90;;;;;;4851244;29;20045;-87
2022/01/13 06:43:40;;;;;;;84.03;18.10;;;5.20;99.90;;;;;;4861233;29;20067;-88
2022/01/13 06:46:05;;;;;;;78.95;19.25;;;5.20;99.90;;;;;;4860444;29;20052;-88
2022/01/13 06:48:31;;;;;;;63.30;16.85;;;5.20;99.90;;;;;;4860889;29;20052;-88
2022/01/13 06:50:57;;;;;;;80.65;20.15;;;5.30;99.90;;;;;;4868155;29;20044;-88
2022/01/13 06:53:22;;;;;;;82.25;19.15;;;5.30;99.90;;;;;;4860568;29;20053;-88
2022/01/13 06:55:49;;;;;;;78.45;18.48;;;5.30;99.90;;;;;;4856048;29;20049;-87
2022/01/13 06:58:14;;;;;;;106.70;21.73;;;5.20;99.90;;;;;;4869609;29;20052;-86
2022/01/13 07:00:40;;;;;;;96.40;21.30;;;5.30;99.90;;;;;;4861770;29;20563;-87
2022/01/13 07:03:06;;;;;;;99.60;20.77;;;5.30;99.90;;;;;;4861099;29;20068;-86
2022/01/13 07:05:31;;;;;;;91.90;20.85;;;5.30;99.90;;;;;;4861301;29;20240;-87
2022/01/13 07:07:57;;;;;;;77.05;19.85;;;5.30;99.90;;;;;;4863004;29;20060;-87
2022/01/13 07:10:23;;;;;;;92.85;20.90;;;5.30;99.90;;;;;;4872025;29;20037;-87
2022/01/13 07:12:48;;;;;;;84.15;20.27;;;5.30;99.90;;;;;;4861822;29;20040;-87
2022/01/13 07:15:14;;;;;;;116.18;21.25;;;5.20;99.90;;;;;;4858777;29;20051;-87
2022/01/13 07:17:40;;;;;;;98.82;20.27;;;5.20;99.90;;;;;;4860588;29;20127;-87
2022/01/13 07:20:07;;;;;;;88.50;19.88;;;5.30;99.90;;;;;;4892527;29;20439;-87
2022/01/13 07:22:32;;;;;;;96.45;20.50;;;5.20;99.90;;;;;;4868365;29;20051;-87
2022/01/13 07:24:58;;;;;;;123.97;20.90;;;5.20;99.90;;;;;;4859949;29;20041;-88
2022/01/13 07:27:24;;;;;;;130.27;21.58;;;5.30;99.90;;;;;;4856595;29;20037;-87
2022/01/13 07:29:49;;;;;;;88.35;19.27;;;5.20;99.90;;;;;;4857349;29;20040;-88
2022/01/13 07:32:15;;;;;;;85.68;19.08;;;5.30;99.90;;;;;;4857809;29;20045;-88
2022/01/13 07:34:42;;;;;;;100.72;21.25;;;5.30;99.90;;;;;;4871538;29;20124;-90
2022/01/13 07:37:08;;;;;;;94.28;20.38;;;5.30;99.90;;;;;;4878892;29;20063;-91
2022/01/13 07:39:35;;;;;;;95.00;20.35;;;5.20;99.90;;;;;;4867482;29;20040;-91
2022/01/13 07:42:02;;;;;;;89.93;20.45;;;5.30;99.90;;;;;;4869867;29;20049;-91
2022/01/13 07:44:28;;;;;;;95.75;21.88;;;5.30;99.90;;;;;;4879002;29;20051;-91
2022/01/13 07:46:56;;;;;;;93.05;21.13;;;5.30;99.90;;;;;;4859177;29;20419;-90
2022/01/13 07:49:21;;;;;;;72.28;18.95;;;5.30;99.90;;;;;;4869514;29;20041;-89
2022/01/13 07:51:47;;;;;;;82.55;20.42;;;5.40;99.90;;;;;;4861860;29;20524;-87
2022/01/13 07:54:12;;;;;;;84.88;19.77;;;5.40;99.90;;;;;;4859178;29;20048;-87
2022/01/13 07:56:38;;;;;;;81.65;19.90;;;5.40;99.90;;;;;;4862346;29;20064;-88
2022/01/13 07:59:03;;;;;;;78.57;19.45;;;5.40;99.90;;;;;;4872199;29;20045;-89
2022/01/13 08:01:29;;;;;;;89.47;18.85;;;5.40;99.90;;;;;;4857881;29;20044;-88
2022/01/13 08:03:55;;;;;;;76.70;19.27;;;5.50;99.90;;;;;;4862337;29;20419;-88
2022/01/13 08:06:20;;;;;;;73.03;18.52;;;5.40;99.90;;;;;;4862847;29;20140;-88
2022/01/13 08:08:46;;;;;;;78.90;20.52;;;5.40;99.90;;;;;;4862029;29;20108;-88
2022/01/13 08:11:11;;;;;;;92.65;21.17;;;5.40;99.90;;;;;;4862461;29;20049;-88
2022/01/13 08:13:37;;;;;;;78.53;18.50;;;5.30;99.90;;;;;;4878179;29;20114;-89
2022/01/13 08:16:07;;;;;;;96.72;19.98;;;5.40;99.90;;;;;;4856055;29;20514;-86
2022/01/13 08:21:18;;;;;;;81.50;18.90;;;5.40;99.90;;;;;;4880355;29;20048;-86
2022/01/13 08:23:44;;;;;;;81.90;19.88;;;5.40;99.90;;;;;;4876855;29;20045;-86
2022/01/13 08:26:10;;;;;;;99.82;21.67;;;5.40;99.90;;;;;;4875283;29;20531;-87
2022/01/13 08:28:36;;;;;;;81.45;21.25;;;5.30;99.90;;;;;;4861561;29;20407;-87
2022/01/13 08:31:05;;;;;;;86.38;19.30;;;5.40;99.90;;;;;;4861695;29;20048;-87
2022/01/13 08:33:31;;;;;;;80.45;21.08;;;5.40;99.90;;;;;;4862106;29;20047;-90
2022/01/13 08:35:57;;;;;;;90.38;21.38;;;5.40;99.90;;;;;;4859311;29;20412;-87
2022/01/13 08:38:24;;;;;;;107.32;21.38;;;5.40;99.90;;;;;;4861223;29;20044;-87
2022/01/13 08:40:57;;;;;;;90.65;20.00;;;5.40;99.90;;;;;;4860561;29;20055;-88
2022/01/13 08:43:23;;;;;;;84.88;21.25;;;5.50;99.90;;;;;;4877545;29;20938;-86
2022/01/13 08:45:49;;;;;;;74.63;19.38;;;5.60;99.90;;;;;;4861387;29;20135;-89
2022/01/13 08:48:15;;;;;;;98.88;21.35;;;5.60;99.90;;;;;;4859029;29;20127;-89
2022/01/13 08:50:41;;;;;;;77.60;19.88;;;5.60;99.90;;;;;;4861413;29;20037;-88
2022/01/13 08:53:08;;;;;;;101.68;21.35;;;5.60;99.90;;;;;;4862403;29;20048;-88
2022/01/13 08:55:34;;;;;;;79.93;21.75;;;5.50;99.90;;;;;;4861161;29;20037;-87
2022/01/13 08:58:00;;;;;;;90.47;21.08;;;5.50;99.90;;;;;;4875770;29;20043;-86
2022/01/13 09:00:25;;;;;;;91.25;21.38;;;5.50;99.90;;;;;;4860938;29;20036;-87
2022/01/13 09:02:51;;;;;;;84.80;22.00;;;5.40;99.90;;;;;;4860317;29;20079;-90
2022/01/13 09:05:19;;;;;;;78.90;19.63;;;5.60;99.90;;;;;;4876515;29;20405;-87
2022/01/13 09:07:44;;;;;;;66.75;19.35;;;5.60;99.90;;;;;;4861044;29;20053;-87
2022/01/13 09:10:12;;;;;;;96.75;21.77;;;5.60;99.90;;;;;;4875989;29;20033;-88
2022/01/13 09:12:38;;;;;;;82.38;20.15;;;5.60;99.90;;;;;;4861884;29;20135;-87
2022/01/13 09:15:32;;;;;;;80.32;20.95;;;5.60;99.90;;;;;;4861452;29;20052;-87
2022/01/13 09:17:59;;;;;;;85.50;21.27;;;5.60;99.90;;;;;;4860692;29;20067;-89
2022/01/13 09:20:25;;;;;;;81.22;19.83;;;5.60;99.90;;;;;;4859084;29;20036;-88
2022/01/13 09:22:51;;;;;;;83.97;20.20;;;5.70;99.90;;;;;;4856476;29;20495;-89
2022/01/13 09:25:17;;;;;;;83.15;20.58;;;5.70;99.90;;;;;;4860536;29;20048;-88
2022/01/13 09:27:43;;;;;;;94.22;20.25;;;5.70;99.90;;;;;;4858607;29;20435;-86
2022/01/13 09:30:11;;;;;;;84.57;21.17;;;5.70;99.90;;;;;;4861440;29;20041;-88
2022/01/13 09:32:37;;;;;;;83.38;21.40;;;5.80;99.90;;;;;;4865979;29;20044;-89
2022/01/13 09:35:04;;;;;;;79.50;19.77;;;5.80;99.90;;;;;;4860832;29;20049;-87
2022/01/13 09:37:30;;;;;;;87.53;21.35;;;5.80;99.90;;;;;;4861567;29;20590;-93
2022/01/13 09:39:56;;;;;;;104.97;22.58;;;5.90;99.90;;;;;;4860016;29;20040;-88
2022/01/13 09:42:23;;;;;;;86.72;19.70;;;5.90;99.90;;;;;;4861413;29;20108;-90
2022/01/13 09:44:50;;;;;;;82.10;21.27;;;5.90;99.90;;;;;;4871589;29;20048;-88
2022/01/13 09:47:15;;;;;;;98.70;20.60;;;5.90;99.90;;;;;;4862391;29;20049;-87
2022/01/13 09:49:44;;;;;;;70.00;18.65;;;6.00;99.90;;;;;;4863272;29;20037;-86
2022/01/13 09:52:09;;;;;;;88.28;20.08;;;6.00;99.90;;;;;;4863608;29;20456;-86
2022/01/13 09:54:35;;;;;;;89.65;21.52;;;6.00;99.90;;;;;;4846642;29;20045;-86
2022/01/13 09:57:01;;;;;;;89.60;20.30;;;5.90;99.90;;;;;;4855840;29;20060;-88
2022/01/13 09:59:27;;;;;;;90.28;20.95;;;6.00;99.90;;;;;;4863512;29;20065;-87
2022/01/13 10:01:53;;;;;;;79.85;18.92;;;6.00;99.90;;;;;;4856480;29;20503;-87
2022/01/13 10:04:18;;;;;;;82.05;20.20;;;6.00;99.90;;;;;;4863449;29;20036;-90
2022/01/13 10:06:47;;;;;;;98.20;20.63;;;6.00;99.90;;;;;;4856871;29;20178;-90
2022/01/13 10:09:13;;;;;;;87.97;21.08;;;6.00;99.90;;;;;;4876989;29;20056;-89
2022/01/13 10:11:44;;;;;;;90.13;20.90;;;6.10;99.90;;;;;;4863806;29;20180;-88
2022/01/13 10:16:54;;;;;;;93.88;20.27;;;6.10;99.90;;;;;;4887339;29;20053;-93
2022/01/13 10:19:43;;;;;;;76.10;19.67;;;6.10;99.90;;;;;;4864648;29;20080;-88
2022/01/13 10:22:12;;;;;;;80.70;21.58;;;6.10;99.90;;;;;;4863896;29;20040;-88
2022/01/13 10:24:44;;;;;;;84.45;21.45;;;6.20;99.90;;;;;;4856337;29;20463;-86
2022/01/13 10:27:15;;;;;;;92.10;21.30;;;6.20;99.90;;;;;;4863936;29;20049;-86
2022/01/13 10:29:51;;;;;;;86.60;20.25;;;6.20;99.90;;;;;;4860041;29;20082;-85
2022/01/13 10:32:25;;;;;;;93.90;20.23;;;6.30;99.90;;;;;;4864334;29;20404;-86
2022/01/13 10:35:00;;;;;;;92.80;21.77;;;6.20;99.90;;;;;;4871460;29;20036;-86
2022/01/13 10:37:33;;;;;;;102.15;21.80;;;6.30;99.90;;;;;;4859875;29;20044;-87
2022/01/13 10:40:14;;;;;;;104.85;24.35;;;6.30;99.90;;;;;;4860780;29;20051;-86
2022/01/13 10:45:48;;;;;;;98.15;22.38;;;6.30;99.90;;;;;;4877925;29;20052;-90
2022/01/13 10:48:22;;;;;;;86.88;21.88;;;6.30;99.90;;;;;;4860465;29;20154;-86
2022/01/13 10:50:57;;;;;;;94.28;22.15;;;6.30;99.90;;;;;;4854871;29;20043;-87
2022/01/13 10:53:25;;;;;;;71.95;18.30;;;6.30;99.90;;;;;;4873972;29;20119;-86
2022/01/13 10:55:59;;;;;;;80.03;20.00;;;6.50;99.90;;;;;;4861154;29;20060;-89
2022/01/13 10:58:28;;;;;;;83.20;19.20;;;6.50;99.90;;;;;;4857913;29;20472;-87
2022/01/13 11:00:55;;;;;;;67.18;19.63;;;6.50;99.90;;;;;;4862192;29;20076;-88
2022/01/13 11:03:22;;;;;;;92.53;21.17;;;6.50;99.90;;;;;;4863457;29;20056;-87
2022/01/13 11:05:54;;;;;;;101.78;23.15;;;6.50;99.90;;;;;;4869312;29;20132;-86
2022/01/13 11:08:44;;;;;;;93.68;21.60;;;6.50;99.90;;;;;;4862746;29;20053;-87
2022/01/13 11:11:22;;;;;;;72.72;20.48;;;6.50;99.90;;;;;;4858710;29;20124;-87
2022/01/13 11:13:53;;;;;;;71.18;20.13;;;6.50;99.90;;;;;;4862959;29;20515;-87
2022/01/13 11:16:20;;;;;;;70.55;20.20;;;6.60;99.90;;;;;;4856655;29;20040;-87
2022/01/13 11:18:46;;;;;;;83.32;21.58;;;6.60;99.90;;;;;;4862294;29;20410;-86
2022/01/13 11:21:13;;;;;;;74.90;20.33;;;6.60;99.90;;;;;;4863834;29;20040;-86
2022/01/13 11:23:41;;;;;;;79.40;21.92;;;6.60;99.90;;;;;;4863215;29;20060;-86
2022/01/13 11:26:08;;;;;;;88.20;21.08;;;6.60;99.90;;;;;;4862124;29;20044;-86
2022/01/13 11:28:37;;;;;;;90.60;22.02;;;6.50;99.90;;;;;;4862905;29;20052;-87
2022/01/13 11:31:02;;;;;;;92.35;22.48;;;6.50;99.90;;;;;;4861436;29;20049;-86
2022/01/13 11:33:28;;;;;;;77.50;21.08;;;6.50;99.90;;;;;;4862414;29;20408;-86
2022/01/13 11:35:57;;;;;;;80.85;21.15;;;6.50;99.90;;;;;;4858652;29;20044;-86
2022/01/13 11:38:25;;;;;;;88.55;27.98;;;6.50;99.90;;;;;;4861600;29;20048;-86
2022/01/13 11:41:03;;;;;;;78.40;24.25;;;6.50;99.90;;;;;;4861611;29;20052;-86
2022/01/13 11:43:41;;;;;;;91.38;24.63;;;6.60;99.90;;;;;;4856434;29;20177;-86
2022/01/13 11:46:19;;;;;;;87.22;24.38;;;6.50;99.90;;;;;;4861721;29;20100;-87
2022/01/13 11:49:10;;;;;;;83.13;22.23;;;6.50;99.90;;;;;;4853926;29;20493;-85
2022/01/13 11:52:10;;;;;;;101.43;23.33;;;6.60;99.90;;;;;;4854704;29;20575;-88
2022/01/13 11:54:38;;;;;;;89.63;23.00;;;6.60;99.90;;;;;;4871994;29;20511;-86
2022/01/13 11:57:17;;;;;;;87.10;22.50;;;6.60;99.90;;;;;;4860970;29;20139;-86
2022/01/13 11:59:55;;;;;;;81.60;22.15;;;6.70;99.90;;;;;;4846706;29;20735;-85
2022/01/13 12:02:29;;;;;;;98.45;24.52;;;6.60;99.90;;;;;;4874985;29;20045;-87
2022/01/13 12:05:02;;;;;;;;;;;6.60;99.90;;;;;;4877254;29;20068;-87
2022/01/13 12:07:42;;;;;;;74.10;20.67;;;6.60;99.90;;;;;;4877758;29;20382;-86
2022/01/13 12:10:08;;;;;;;81.85;21.95;;;6.70;99.90;;;;;;4859208;29;20365;-87
2022/01/13 12:12:35;;;;;;;86.85;23.05;;;6.80;99.90;;;;;;4862267;29;20191;-87
2022/01/13 12:15:21;;;;;;;86.82;22.02;;;6.70;99.90;;;;;;4861585;29;20192;-87
2022/01/13 12:17:58;;;;;;;82.78;23.48;;;6.70;99.90;;;;;;4860795;29;20103;-86
2022/01/13 12:20:38;;;;;;;119.30;25.27;;;6.70;99.90;;;;;;4855762;29;20047;-88
2022/01/13 12:23:15;;;;;;;100.60;25.58;;;6.70;99.90;;;;;;4892542;29;20220;-87
2022/01/13 12:25:41;;;;;;;96.32;24.73;;;6.60;99.90;;;;;;4878396;29;20051;-86
2022/01/13 12:28:20;;;;;;;95.40;24.95;;;6.60;99.90;;;;;;4861560;29;20041;-85
2022/01/13 12:30:47;;;;;;;86.20;23.17;;;6.60;99.90;;;;;;4861353;29;20391;-87
2022/01/13 12:33:29;;;;;;;78.97;21.77;;;6.60;99.90;;;;;;4864766;29;20107;-86
2022/01/13 12:35:55;;;;;;;93.68;24.48;;;6.80;99.90;;;;;;4861565;29;20067;-87
2022/01/13 12:38:22;;;;;;;111.05;27.52;;;6.80;99.90;;;;;;4862012;29;20511;-85
2022/01/13 12:41:01;;;;;;;115.53;26.15;;;6.80;99.90;;;;;;4874650;29;20073;-85
2022/01/13 12:46:17;;;;;;;95.85;27.00;;;6.70;99.90;;;;;;4867971;29;20049;-87
2022/01/13 12:48:55;;;;;;;104.60;26.90;;;6.70;99.90;;;;;;4852655;29;20138;-87
2022/01/13 12:51:24;;;;;;;101.20;25.38;;;6.80;99.90;;;;;;4861653;29;20326;-87
2022/01/13 12:53:51;;;;;;;104.60;26.67;;;6.80;99.90;;;;;;4859586;29;20077;-87
2022/01/13 12:56:19;;;;;;;112.05;28.08;;;6.80;99.90;;;;;;4876993;29;20622;-87
2022/01/13 12:59:00;;;;;;;126.68;30.38;;;6.70;99.90;;;;;;4874297;29;20449;-84
2022/01/13 13:01:28;;;;;;;113.82;26.77;;;6.60;99.90;;;;;;4860963;29;20415;-88
2022/01/13 13:04:02;;;;;;;123.70;29.90;;;6.70;99.90;;;;;;4876099;29;20573;-87